createdAt,value
2022-10-05T00:01:38.250Z,101472.16
2022-10-05T00:06:39.941Z,101483.31
2022-10-05T00:11:41.667Z,101464.38
2022-10-05T00:16:43.765Z,101464.00
2022-10-05T00:21:45.753Z,101482.47
2022-10-05T00:26:48.953Z,101460.50
2022-10-05T00:31:52.595Z,101478.72
2022-10-05T00:36:54.336Z,101472.94
2022-10-05T00:42:16.133Z,101486.09
2022-10-05T00:48:07.433Z,101466.84
2022-10-05T00:53:31.162Z,101468.69
2022-10-05T00:58:52.182Z,101456.53
2022-10-05T01:04:35.218Z,101454.75
2022-10-05T01:10:04.420Z,101453.81
2022-10-05T01:15:23.982Z,101457.50
2022-10-05T01:21:09.206Z,101450.38
2022-10-05T01:26:54.210Z,101396.84
2022-10-05T01:32:31.474Z,101431.84
2022-10-05T01:38:03.668Z,101436.28
2022-10-05T01:43:17.444Z,101439.50
2022-10-05T01:48:56.465Z,101436.38
2022-10-05T01:54:58.528Z,101440.56
2022-10-05T02:00:19.244Z,101434.81
2022-10-05T02:05:39.233Z,101452.34
2022-10-05T02:10:55.715Z,101454.84
2022-10-05T02:16:10.171Z,101454.59
2022-10-05T02:21:12.811Z,101444.25
2022-10-05T02:26:17.492Z,101435.50
2022-10-05T02:31:36.060Z,101445.91
2022-10-05T02:36:38.237Z,101459.25
2022-10-05T02:42:22.083Z,101452.88
2022-10-05T02:47:33.388Z,101448.88
2022-10-05T02:53:16.644Z,101451.63
2022-10-05T02:58:30.329Z,101449.03
2022-10-05T03:03:50.428Z,101428.00
2022-10-05T03:09:04.386Z,101428.13
2022-10-05T03:14:44.162Z,101440.56
2022-10-05T03:20:31.854Z,101424.44
2022-10-05T03:25:51.689Z,101428.81
2022-10-05T03:31:28.512Z,101411.72
2022-10-05T03:36:49.848Z,101410.75
2022-10-05T03:42:29.402Z,101403.22
2022-10-05T03:48:01.474Z,101401.72
2022-10-05T03:53:16.625Z,101384.09
2022-10-05T03:59:02.064Z,101370.16
2022-10-05T04:04:11.261Z,101361.66
2022-10-05T04:09:51.016Z,101379.16
2022-10-05T04:15:34.592Z,101378.06
2022-10-05T04:20:52.081Z,101375.47
2022-10-05T04:26:06.454Z,101374.47
2022-10-05T04:31:22.907Z,101376.94
2022-10-05T04:36:35.677Z,101355.66
2022-10-05T04:41:55.822Z,101388.88
2022-10-05T04:47:37.221Z,101388.38
2022-10-05T04:53:13.552Z,101389.03
2022-10-05T04:59:03.297Z,101371.13
2022-10-05T05:04:51.676Z,101379.88
2022-10-05T05:10:32.621Z,101374.88
2022-10-05T05:16:24.051Z,101371.25
2022-10-05T05:22:06.767Z,101383.09
2022-10-05T05:27:57.431Z,101378.16
2022-10-05T05:33:43.052Z,101365.09
2022-10-05T05:39:27.834Z,101334.63
2022-10-05T05:44:48.150Z,101353.38
2022-10-05T05:50:34.621Z,101351.06
2022-10-05T05:55:46.358Z,101364.84
2022-10-05T06:01:32.286Z,101352.34
2022-10-05T06:06:46.982Z,101349.03
2022-10-05T06:11:57.054Z,101346.50
2022-10-05T06:17:11.249Z,101350.25
2022-10-05T06:22:37.066Z,101351.25
2022-10-05T06:28:13.889Z,101363.75
2022-10-05T06:33:31.357Z,101370.88
2022-10-05T06:39:01.963Z,101364.28
2022-10-05T06:44:23.241Z,101373.81
2022-10-05T06:50:02.726Z,101371.75
2022-10-05T06:56:02.999Z,101373.00
2022-10-05T07:02:04.805Z,101369.31
2022-10-05T07:08:05.038Z,101354.59
2022-10-05T07:13:51.406Z,101371.31
2022-10-05T07:19:26.795Z,101377.41
2022-10-05T07:25:17.280Z,101374.84
2022-10-05T07:30:19.843Z,101353.69
2022-10-05T07:36:08.371Z,101359.97
2022-10-05T07:41:51.092Z,101354.63
2022-10-05T07:47:37.620Z,101346.06
2022-10-05T07:52:49.246Z,101358.13
2022-10-05T07:58:09.733Z,101355.59
2022-10-05T08:03:47.138Z,101368.09
2022-10-05T08:09:19.729Z,101356.28
2022-10-05T08:15:09.969Z,101334.31
2022-10-05T08:20:29.578Z,101332.22
2022-10-05T08:26:02.583Z,101332.94
2022-10-05T08:31:37.224Z,101315.84
2022-10-05T08:36:38.823Z,101309.81
2022-10-05T08:42:43.532Z,101302.47
2022-10-05T08:49:34.908Z,101300.84
2022-10-05T08:55:37.335Z,101290.53
2022-10-05T09:01:09.808Z,101278.94
2022-10-05T09:06:51.067Z,101282.41
2022-10-05T09:13:02.022Z,101286.47
2022-10-05T09:19:06.240Z,101285.84
2022-10-05T09:24:49.104Z,101282.59
2022-10-05T09:30:28.739Z,101284.84
2022-10-05T09:36:28.016Z,101279.66
2022-10-05T09:42:13.198Z,101282.34
2022-10-05T09:47:56.448Z,101266.22
2022-10-05T09:53:09.872Z,101262.22
2022-10-05T09:58:48.583Z,101245.41
2022-10-05T10:04:43.724Z,101235.75
2022-10-05T10:10:15.417Z,101226.22
2022-10-05T10:15:35.239Z,101235.31
2022-10-05T10:21:45.542Z,101235.47
2022-10-05T10:27:28.910Z,101247.63
2022-10-05T10:33:11.854Z,101247.06
2022-10-05T10:39:04.407Z,101254.34
2022-10-05T10:44:56.237Z,101261.63
2022-10-05T10:51:04.211Z,101241.91
2022-10-05T10:56:52.935Z,101253.75
2022-10-05T11:02:47.991Z,101246.72
2022-10-05T11:08:42.660Z,101238.91
2022-10-05T11:14:33.687Z,101238.34
2022-10-05T11:20:04.722Z,101221.00
2022-10-05T11:25:58.938Z,101198.44
2022-10-05T11:31:59.009Z,101211.97
2022-10-05T11:37:19.220Z,101198.19
2022-10-05T11:43:07.859Z,101207.91
2022-10-05T11:48:54.600Z,101192.97
2022-10-05T11:55:11.757Z,101197.28
2022-10-05T12:00:56.816Z,101190.94
2022-10-05T12:06:47.374Z,101186.81
2022-10-05T12:11:58.821Z,101174.00
2022-10-05T12:17:47.554Z,101160.13
2022-10-05T12:23:37.548Z,101150.50
2022-10-05T12:29:15.798Z,101151.53
2022-10-05T12:34:49.509Z,101140.09
2022-10-05T12:40:43.813Z,101133.13
2022-10-05T12:46:25.317Z,101135.75
2022-10-05T12:51:46.697Z,101133.16
2022-10-05T12:57:31.465Z,101135.84
2022-10-05T13:02:48.793Z,101130.66
2022-10-05T13:08:08.167Z,101123.59
2022-10-05T13:13:46.532Z,101133.28
2022-10-05T13:19:47.514Z,101130.78
2022-10-05T13:25:14.934Z,101115.00
2022-10-05T13:30:21.601Z,101108.03
2022-10-05T13:35:56.960Z,101122.09
2022-10-05T13:41:21.579Z,101101.03
2022-10-05T13:47:04.353Z,101089.66
2022-10-05T13:52:30.707Z,101097.53
2022-10-05T13:58:05.961Z,101078.16
2022-10-05T14:03:36.985Z,101093.09
2022-10-05T14:09:25.443Z,101094.84
2022-10-05T14:14:31.529Z,101098.31
2022-10-05T14:19:44.706Z,101074.56
2022-10-05T14:25:05.171Z,101085.94
2022-10-05T14:30:12.457Z,101073.59
2022-10-05T14:35:22.058Z,101070.88
2022-10-05T14:40:29.018Z,101065.63
2022-10-05T14:45:31.025Z,101058.59
2022-10-05T14:50:32.813Z,101043.63
2022-10-05T14:56:42.644Z,101043.69
2022-10-05T15:02:16.994Z,101042.75
2022-10-05T15:07:39.667Z,101055.03
2022-10-05T15:12:48.223Z,101046.22
2022-10-05T15:18:00.265Z,101051.44
2022-10-05T15:23:27.523Z,101053.19
2022-10-05T15:28:54.330Z,101047.00
2022-10-05T15:34:15.948Z,101049.56
2022-10-05T15:39:40.357Z,101042.53
2022-10-05T15:45:25.328Z,101050.38
2022-10-05T15:51:21.521Z,101028.38
2022-10-05T15:56:38.568Z,101031.75
2022-10-05T16:02:01.321Z,101039.66
2022-10-05T16:07:26.050Z,101028.13
2022-10-05T16:13:19.651Z,101031.59
2022-10-05T16:19:04.029Z,101035.00
2022-10-05T16:24:37.173Z,101027.84
2022-10-05T16:30:09.463Z,101025.13
2022-10-05T16:36:02.917Z,101037.28
2022-10-05T16:41:27.969Z,101034.56
2022-10-05T16:47:16.532Z,101017.75
2022-10-05T16:52:23.474Z,101024.59
2022-10-05T16:57:43.598Z,101028.78
2022-10-05T17:03:39.953Z,101037.34
2022-10-05T17:09:12.245Z,101024.91
2022-10-05T17:15:12.837Z,101044.16
2022-10-05T17:21:11.602Z,101039.50
2022-10-05T17:26:52.704Z,101055.25
2022-10-05T17:32:06.285Z,101064.75
2022-10-05T17:37:41.481Z,101055.88
2022-10-05T17:42:47.095Z,101062.78
2022-10-05T17:48:03.723Z,101071.44
2022-10-05T17:53:54.509Z,101060.00
2022-10-05T17:59:02.561Z,101054.63
2022-10-05T18:04:13.160Z,101062.53
2022-10-05T18:09:20.246Z,101060.72
2022-10-05T18:14:24.825Z,101056.28
2022-10-05T18:19:32.177Z,101044.75
2022-10-05T18:25:05.714Z,101051.81
2022-10-05T18:30:25.291Z,101036.81
2022-10-05T18:36:03.818Z,101055.16
2022-10-05T18:41:46.422Z,101048.13
2022-10-05T18:47:22.676Z,101049.72
2022-10-05T18:52:56.667Z,101048.63
2022-10-05T18:58:22.765Z,101049.50
2022-10-05T19:03:51.803Z,101050.25
2022-10-05T19:09:47.038Z,101049.31
2022-10-05T19:15:30.004Z,101055.38
2022-10-05T19:21:08.001Z,101059.59
2022-10-05T19:26:56.561Z,101078.84
2022-10-05T19:33:13.010Z,101091.81
2022-10-05T19:38:55.697Z,101110.00
2022-10-05T19:44:56.878Z,101114.91
2022-10-05T19:50:40.357Z,101109.34
2022-10-05T19:55:46.979Z,101123.25
2022-10-05T20:00:59.785Z,101129.06
2022-10-05T20:06:10.342Z,101120.06
2022-10-05T20:11:27.005Z,101131.34
2022-10-05T20:16:51.031Z,101152.44
2022-10-05T20:21:59.697Z,101161.06
2022-10-05T20:27:16.503Z,101170.56
2022-10-05T20:32:18.313Z,101177.38
2022-10-05T20:37:20.083Z,101170.25
2022-10-05T20:42:23.809Z,101179.97
2022-10-05T20:47:26.553Z,101180.75
2022-10-05T20:52:28.656Z,101188.66
2022-10-05T20:57:31.362Z,101200.97
2022-10-05T21:02:33.209Z,101192.13
2022-10-05T21:07:35.183Z,101208.09
2022-10-05T21:12:37.303Z,101205.53
2022-10-05T21:17:39.043Z,101194.97
2022-10-05T21:22:41.083Z,101207.25
2022-10-05T21:27:42.703Z,101203.81
2022-10-05T21:32:44.992Z,101202.16
2022-10-05T21:37:46.751Z,101204.06
2022-10-05T21:42:48.389Z,101199.56
2022-10-05T21:47:50.513Z,101216.38
2022-10-05T21:52:53.518Z,101232.22
2022-10-05T21:57:58.076Z,101209.38
2022-10-05T22:02:59.756Z,101222.59
2022-10-05T22:08:01.427Z,101225.19
2022-10-05T22:13:04.486Z,101221.66
2022-10-05T22:18:06.220Z,101225.13
2022-10-05T22:23:07.878Z,101223.47
2022-10-05T22:28:14.793Z,101220.75
2022-10-05T22:33:16.493Z,101238.22
2022-10-05T22:38:18.133Z,101241.72
2022-10-05T22:43:19.836Z,101231.03
2022-10-05T22:48:22.020Z,101234.63
2022-10-05T22:53:24.674Z,101240.81
2022-10-05T22:58:26.700Z,101246.03
2022-10-05T23:03:28.526Z,101267.16
2022-10-05T23:08:33.180Z,101250.38
2022-10-05T23:13:34.978Z,101264.34
2022-10-05T23:18:37.520Z,101244.94
2022-10-05T23:23:43.766Z,101287.22
2022-10-05T23:28:49.149Z,101288.09
2022-10-05T23:33:53.188Z,101290.59
2022-10-05T23:38:54.908Z,101290.59
2022-10-05T23:43:56.868Z,101293.25
2022-10-05T23:48:58.554Z,101290.59
2022-10-05T23:54:00.271Z,101320.38
2022-10-05T23:59:01.964Z,101305.28
